createdAt,value
2023-03-05T00:02:09.939Z,3.58
2023-03-05T00:04:36.951Z,3.53
2023-03-05T00:07:03.779Z,3.57
2023-03-05T00:09:30.603Z,3.54
2023-03-05T00:11:57.656Z,3.62
2023-03-05T00:14:24.507Z,3.61
2023-03-05T00:16:51.292Z,3.46
2023-03-05T00:19:18.337Z,3.60
2023-03-05T00:21:45.507Z,3.50
2023-03-05T00:24:17.359Z,3.54
2023-03-05T00:26:45.245Z,3.49
2023-03-05T00:29:15.646Z,3.53
2023-03-05T00:31:45.590Z,3.50
2023-03-05T00:34:14.824Z,3.49
2023-03-05T00:36:47.639Z,3.46
2023-03-05T00:39:15.424Z,3.44
2023-03-05T00:41:42.338Z,3.41
2023-03-05T00:44:09.302Z,3.51
2023-03-05T00:46:36.468Z,3.52
2023-03-05T00:49:03.959Z,3.51
2023-03-05T00:51:30.798Z,3.53
2023-03-05T00:53:57.632Z,3.31
2023-03-05T00:56:24.598Z,3.40
2023-03-05T00:58:51.802Z,3.45
2023-03-05T01:01:18.768Z,3.44
2023-03-05T01:03:45.725Z,3.41
2023-03-05T01:06:14.195Z,3.50
2023-03-05T01:08:41.242Z,3.43
2023-03-05T01:11:08.573Z,3.41
2023-03-05T01:13:36.235Z,3.43
2023-03-05T01:16:04.130Z,3.48
2023-03-05T01:18:31.158Z,3.42
2023-03-05T01:20:57.895Z,3.27
2023-03-05T01:23:24.679Z,3.40
2023-03-05T01:25:56.837Z,3.43
2023-03-05T01:28:23.854Z,3.43
2023-03-05T01:30:50.730Z,3.42
2023-03-05T01:33:18.047Z,3.43
2023-03-05T01:35:47.891Z,3.45
2023-03-05T01:38:15.528Z,3.45
2023-03-05T01:40:43.809Z,3.30
2023-03-05T01:43:13.391Z,3.44
2023-03-05T01:46:18.575Z,3.42
2023-03-05T01:48:49.925Z,3.39
2023-03-05T01:51:20.528Z,3.37
2023-03-05T01:53:47.903Z,3.32
2023-03-05T01:56:15.076Z,3.34
2023-03-05T01:58:41.975Z,3.22
2023-03-05T02:01:09.562Z,3.27
2023-03-05T02:03:37.108Z,3.18
2023-03-05T02:06:04.065Z,3.32
2023-03-05T02:08:30.850Z,3.29
2023-03-05T02:10:57.814Z,3.35
2023-03-05T02:13:28.321Z,3.19
2023-03-05T02:15:58.210Z,3.29
2023-03-05T02:18:26.026Z,3.34
2023-03-05T02:20:55.786Z,3.32
2023-03-05T02:23:28.198Z,3.22
2023-03-05T02:25:55.277Z,3.29
2023-03-05T02:28:27.764Z,3.28
2023-03-05T02:30:54.998Z,3.24
2023-03-05T02:33:22.500Z,3.20
2023-03-05T02:35:49.815Z,3.24
2023-03-05T02:38:19.260Z,3.28
2023-03-05T02:40:46.058Z,3.22
2023-03-05T02:43:14.386Z,3.25
2023-03-05T02:45:41.297Z,3.22
2023-03-05T02:48:08.107Z,3.26
2023-03-05T02:50:35.641Z,3.22
2023-03-05T02:53:03.217Z,3.21
2023-03-05T02:55:30.105Z,3.24
2023-03-05T02:57:56.851Z,3.20
2023-03-05T03:00:23.743Z,3.23
2023-03-05T03:02:50.548Z,3.13
2023-03-05T03:05:17.394Z,3.22
2023-03-05T03:07:44.154Z,3.18
2023-03-05T03:10:11.518Z,3.22
2023-03-05T03:12:40.084Z,3.20
2023-03-05T03:15:08.516Z,3.20
2023-03-05T03:17:36.777Z,3.18
2023-03-05T03:20:06.162Z,3.21
2023-03-05T03:22:33.218Z,3.10
2023-03-05T03:25:01.366Z,3.20
2023-03-05T03:27:28.087Z,3.09
2023-03-05T03:29:54.835Z,3.20
2023-03-05T03:32:21.655Z,3.21
2023-03-05T03:34:48.424Z,3.19
2023-03-05T03:37:15.131Z,3.17
2023-03-05T03:39:41.855Z,3.12
2023-03-05T03:42:08.668Z,3.15
2023-03-05T03:44:35.370Z,3.00
2023-03-05T03:47:02.708Z,3.20
2023-03-05T03:49:29.448Z,3.03
2023-03-05T03:51:56.159Z,3.10
2023-03-05T03:54:22.996Z,3.10
2023-03-05T03:56:49.966Z,3.19
2023-03-05T03:59:16.966Z,3.17
2023-03-05T04:01:43.678Z,3.02
2023-03-05T04:04:12.471Z,3.14
2023-03-05T04:06:39.259Z,3.07
2023-03-05T04:09:08.187Z,3.07
2023-03-05T04:11:38.311Z,3.17
2023-03-05T04:14:05.789Z,3.11
2023-03-05T04:16:32.580Z,3.14
2023-03-05T04:18:59.294Z,3.11
2023-03-05T04:21:26.040Z,3.10
2023-03-05T04:23:52.790Z,3.10
2023-03-05T04:26:19.555Z,3.10
2023-03-05T04:28:48.433Z,3.15
2023-03-05T04:31:15.248Z,3.16
2023-03-05T04:33:42.047Z,3.13
2023-03-05T04:36:09.067Z,3.11
2023-03-05T04:38:35.774Z,3.07
2023-03-05T04:41:02.489Z,3.14
2023-03-05T04:43:29.219Z,3.10
2023-03-05T04:45:56.118Z,3.02
2023-03-05T04:48:22.780Z,3.13
2023-03-05T04:50:49.651Z,3.11
2023-03-05T04:53:16.651Z,3.15
2023-03-05T04:55:43.995Z,3.12
2023-03-05T04:58:10.853Z,3.09
2023-03-05T05:00:37.586Z,2.96
2023-03-05T05:03:04.361Z,3.05
2023-03-05T05:05:31.223Z,3.06
2023-03-05T05:07:58.826Z,3.03
2023-03-05T05:10:26.938Z,3.08
2023-03-05T05:12:54.006Z,3.03
2023-03-05T05:15:21.092Z,3.01
2023-03-05T05:17:48.247Z,2.97
2023-03-05T05:20:16.805Z,2.98
2023-03-05T05:22:44.051Z,2.97
2023-03-05T05:25:13.057Z,2.98
2023-03-05T05:27:40.474Z,2.99
2023-03-05T05:30:08.400Z,3.04
2023-03-05T05:32:35.488Z,2.94
2023-03-05T05:35:03.929Z,2.93
2023-03-05T05:37:30.856Z,2.99
2023-03-05T05:39:57.707Z,2.96
2023-03-05T05:42:25.427Z,2.89
2023-03-05T05:44:52.498Z,2.86
2023-03-05T05:47:20.294Z,3.02
2023-03-05T05:49:49.407Z,3.00
2023-03-05T05:52:16.769Z,3.04
2023-03-05T05:54:43.599Z,3.01
2023-03-05T05:57:10.370Z,3.01
2023-03-05T05:59:38.347Z,3.05
2023-03-05T06:02:06.230Z,3.03
2023-03-05T06:04:32.987Z,3.07
2023-03-05T06:07:00.167Z,3.08
2023-03-05T06:09:27.332Z,3.09
2023-03-05T06:11:54.042Z,2.98
2023-03-05T06:14:20.870Z,3.05
2023-03-05T06:16:47.688Z,3.08
2023-03-05T06:19:15.968Z,3.08
2023-03-05T06:21:43.718Z,3.12
2023-03-05T06:24:10.837Z,3.11
2023-03-05T06:26:37.876Z,3.15
2023-03-05T06:29:04.796Z,3.06
2023-03-05T06:31:31.761Z,3.21
2023-03-05T06:34:03.731Z,3.17
2023-03-05T06:36:31.056Z,3.27
2023-03-05T06:38:58.613Z,3.31
2023-03-05T06:41:28.490Z,3.34
2023-03-05T06:43:56.208Z,3.35
2023-03-05T06:46:27.025Z,3.39
2023-03-05T06:48:57.202Z,3.29
2023-03-05T06:51:30.748Z,3.44
2023-03-05T06:54:01.942Z,3.43
2023-03-05T06:56:28.772Z,3.41
2023-03-05T06:58:55.517Z,3.47
2023-03-05T07:01:23.724Z,3.38
2023-03-05T07:03:55.066Z,3.55
2023-03-05T07:06:22.391Z,3.58
2023-03-05T07:08:49.095Z,3.65
2023-03-05T07:11:18.541Z,3.64
2023-03-05T07:13:47.991Z,3.70
2023-03-05T07:16:23.702Z,3.67
2023-03-05T07:18:50.867Z,3.72
2023-03-05T07:21:21.769Z,3.70
2023-03-05T07:23:49.381Z,3.62
2023-03-05T07:26:16.686Z,3.67
2023-03-05T07:28:43.587Z,3.72
2023-03-05T07:31:16.326Z,3.76
2023-03-05T07:33:43.448Z,3.67
2023-03-05T07:36:10.957Z,3.79
2023-03-05T07:38:38.068Z,3.78
2023-03-05T07:41:10.359Z,3.86
2023-03-05T07:43:37.597Z,3.94
2023-03-05T07:46:09.707Z,4.03
2023-03-05T07:48:36.568Z,4.06
2023-03-05T07:51:04.958Z,4.04
2023-03-05T07:53:34.069Z,4.11
2023-03-05T07:56:03.361Z,4.28
2023-03-05T07:58:30.030Z,4.27
2023-03-05T08:00:56.706Z,4.39
2023-03-05T08:03:23.419Z,4.39
2023-03-05T08:05:50.189Z,4.45
2023-03-05T08:08:17.110Z,4.51
2023-03-05T08:10:43.793Z,4.47
2023-03-05T08:13:10.907Z,4.53
2023-03-05T08:15:38.227Z,4.57
2023-03-05T08:18:05.393Z,4.57
2023-03-05T08:20:35.323Z,4.60
2023-03-05T08:23:03.376Z,4.57
2023-03-05T08:25:30.198Z,4.60
2023-03-05T08:27:57.070Z,4.64
2023-03-05T08:30:27.701Z,4.60
2023-03-05T08:32:54.875Z,4.55
2023-03-05T08:35:22.082Z,4.62
2023-03-05T08:37:48.953Z,4.54
2023-03-05T08:40:18.209Z,4.60
2023-03-05T08:42:45.224Z,4.61
2023-03-05T08:45:12.766Z,4.71
2023-03-05T08:47:40.033Z,4.73
2023-03-05T08:50:07.156Z,4.76
2023-03-05T08:52:33.883Z,4.86
2023-03-05T08:55:00.818Z,4.94
2023-03-05T08:57:27.545Z,4.76
2023-03-05T08:59:54.312Z,4.90
2023-03-05T09:02:21.050Z,5.00
2023-03-05T09:04:47.729Z,5.06
2023-03-05T09:07:14.469Z,5.23
2023-03-05T09:09:41.318Z,5.37
2023-03-05T09:12:12.025Z,5.47
2023-03-05T09:14:40.267Z,5.60
2023-03-05T09:17:07.224Z,5.74
2023-03-05T09:19:34.153Z,5.75
2023-03-05T09:22:00.906Z,5.75
2023-03-05T09:24:28.344Z,5.77
2023-03-05T09:26:58.716Z,5.83
2023-03-05T09:29:26.914Z,5.79
2023-03-05T09:31:54.576Z,5.80
2023-03-05T09:34:22.054Z,5.71
2023-03-05T09:36:48.963Z,5.77
2023-03-05T09:39:16.318Z,5.61
2023-03-05T09:41:45.870Z,5.62
2023-03-05T09:44:22.659Z,5.60
2023-03-05T09:47:07.674Z,5.52
2023-03-05T09:50:05.184Z,5.54
2023-03-05T09:52:57.246Z,5.49
2023-03-05T09:55:50.227Z,5.64
2023-03-05T09:58:37.028Z,5.66
2023-03-05T10:01:10.195Z,5.66
2023-03-05T10:04:04.069Z,5.77
2023-03-05T10:06:49.007Z,5.87
2023-03-05T10:10:00.970Z,5.96
2023-03-05T10:12:42.517Z,6.05
2023-03-05T10:15:14.243Z,6.02
2023-03-05T10:18:12.961Z,6.04
2023-03-05T10:20:52.067Z,6.14
2023-03-05T10:23:28.814Z,6.04
2023-03-05T10:26:02.151Z,5.90
2023-03-05T10:28:48.671Z,5.89
2023-03-05T10:31:18.103Z,5.76
2023-03-05T10:34:08.806Z,5.65
2023-03-05T10:36:59.026Z,5.42
2023-03-05T10:39:51.869Z,5.32
2023-03-05T10:42:49.147Z,5.13
2023-03-05T10:45:23.820Z,5.12
2023-03-05T10:48:06.082Z,4.99
2023-03-05T10:51:04.982Z,5.08
2023-03-05T10:53:50.348Z,5.06
2023-03-05T10:56:21.695Z,5.03
2023-03-05T10:58:48.608Z,4.97
2023-03-05T11:01:18.145Z,4.89
2023-03-05T11:03:58.300Z,4.82
2023-03-05T11:06:41.171Z,4.87
2023-03-05T11:09:16.746Z,4.78
2023-03-05T11:11:44.710Z,4.79
2023-03-05T11:14:31.072Z,4.78
2023-03-05T11:16:57.900Z,4.76
2023-03-05T11:19:33.282Z,4.72
2023-03-05T11:22:20.634Z,4.70
2023-03-05T11:25:10.428Z,4.71
2023-03-05T11:27:42.158Z,4.69
2023-03-05T11:30:30.533Z,4.60
2023-03-05T11:33:10.480Z,4.58
2023-03-05T11:35:42.142Z,4.59
2023-03-05T11:38:44.064Z,4.62
2023-03-05T11:41:12.095Z,4.49
2023-03-05T11:43:41.663Z,4.65
2023-03-05T11:46:14.795Z,4.67
2023-03-05T11:48:45.214Z,4.68
2023-03-05T11:51:20.839Z,4.69
2023-03-05T11:53:52.975Z,4.71
2023-03-05T11:56:28.040Z,4.87
2023-03-05T11:59:03.037Z,4.89
2023-03-05T12:01:32.943Z,4.92
2023-03-05T12:04:00.585Z,5.00
2023-03-05T12:06:35.049Z,4.96
2023-03-05T12:09:21.301Z,5.06
2023-03-05T12:11:54.171Z,5.07
2023-03-05T12:14:42.180Z,5.26
2023-03-05T12:17:29.025Z,5.35
2023-03-05T12:20:17.727Z,5.46
2023-03-05T12:22:45.268Z,5.44
2023-03-05T12:25:35.078Z,5.57
2023-03-05T12:28:02.865Z,5.50
2023-03-05T12:30:35.410Z,5.73
2023-03-05T12:33:03.654Z,5.79
2023-03-05T12:35:41.208Z,5.67
2023-03-05T12:38:33.045Z,5.78
2023-03-05T12:41:18.268Z,5.88
2023-03-05T12:43:44.981Z,5.95
2023-03-05T12:46:26.603Z,5.91
2023-03-05T12:48:53.276Z,6.14
2023-03-05T12:51:39.708Z,6.37
2023-03-05T12:54:28.706Z,6.46
2023-03-05T12:56:59.347Z,6.38
2023-03-05T12:59:39.458Z,6.36
2023-03-05T13:02:23.358Z,6.27
2023-03-05T13:04:53.320Z,6.21
2023-03-05T13:07:20.065Z,6.10
2023-03-05T13:09:58.013Z,5.92
2023-03-05T13:12:27.759Z,5.83
2023-03-05T13:15:08.908Z,5.77
2023-03-05T13:17:44.552Z,5.63
2023-03-05T13:20:42.798Z,5.60
2023-03-05T13:23:22.624Z,5.46
2023-03-05T13:26:13.246Z,5.38
2023-03-05T13:28:40.224Z,5.35
2023-03-05T13:31:13.063Z,5.33
2023-03-05T13:33:39.909Z,5.31
2023-03-05T13:36:07.048Z,5.44
2023-03-05T13:38:43.383Z,5.58
2023-03-05T13:41:15.973Z,5.70
2023-03-05T13:43:51.588Z,5.86
2023-03-05T13:46:29.313Z,5.89
2023-03-05T13:48:57.140Z,5.91
2023-03-05T13:51:24.059Z,6.00
2023-03-05T13:53:51.280Z,6.04
2023-03-05T13:56:20.373Z,6.01
2023-03-05T13:58:55.055Z,5.97
2023-03-05T14:01:25.992Z,5.94
2023-03-05T14:03:53.959Z,5.84
2023-03-05T14:06:27.232Z,5.82
2023-03-05T14:09:05.225Z,5.83
2023-03-05T14:11:32.263Z,5.80
2023-03-05T14:14:15.545Z,5.65
2023-03-05T14:16:49.870Z,5.73
2023-03-05T14:19:38.577Z,5.79
2023-03-05T14:22:06.338Z,5.76
2023-03-05T14:24:34.129Z,5.76
2023-03-05T14:27:13.313Z,5.68
2023-03-05T14:29:45.810Z,5.69
2023-03-05T14:32:39.017Z,5.73
2023-03-05T14:35:06.692Z,5.68
2023-03-05T14:37:41.601Z,5.67
2023-03-05T14:40:20.705Z,5.63
2023-03-05T14:43:00.892Z,5.67
2023-03-05T14:45:34.422Z,5.67
2023-03-05T14:48:03.613Z,5.80
2023-03-05T14:50:53.193Z,5.84
2023-03-05T14:53:31.748Z,5.83
2023-03-05T14:55:58.524Z,5.84
2023-03-05T14:58:28.378Z,5.82
2023-03-05T15:00:55.782Z,5.77
2023-03-05T15:03:23.432Z,5.81
2023-03-05T15:05:53.248Z,5.85
2023-03-05T15:08:26.919Z,5.95
2023-03-05T15:10:54.161Z,5.90
2023-03-05T15:13:20.992Z,5.95
2023-03-05T15:15:50.161Z,5.97
2023-03-05T15:18:19.259Z,5.96
2023-03-05T15:20:48.818Z,5.90
2023-03-05T15:23:16.031Z,5.79
2023-03-05T15:25:43.282Z,5.68
2023-03-05T15:28:10.119Z,5.58
2023-03-05T15:30:44.273Z,5.58
2023-03-05T15:33:14.141Z,5.53
2023-03-05T15:35:42.998Z,5.40
2023-03-05T15:38:11.216Z,5.24
2023-03-05T15:40:37.998Z,5.33
2023-03-05T15:43:04.769Z,5.25
2023-03-05T15:45:31.595Z,5.26
2023-03-05T15:47:58.941Z,5.25
2023-03-05T15:50:25.803Z,5.15
2023-03-05T15:52:52.568Z,5.20
2023-03-05T15:55:19.546Z,5.06
2023-03-05T15:57:49.340Z,5.06
2023-03-05T16:00:18.914Z,4.91
2023-03-05T16:02:45.605Z,4.95
2023-03-05T16:05:12.634Z,5.03
2023-03-05T16:07:44.203Z,4.95
2023-03-05T16:10:14.357Z,4.88
2023-03-05T16:12:43.060Z,4.93
2023-03-05T16:15:16.980Z,4.86
2023-03-05T16:17:45.364Z,4.90
2023-03-05T16:20:12.788Z,4.87
2023-03-05T16:22:40.155Z,4.84
2023-03-05T16:25:07.727Z,4.90
2023-03-05T16:27:34.823Z,4.83
2023-03-05T16:30:01.684Z,4.87
2023-03-05T16:32:28.539Z,4.65
2023-03-05T16:34:55.322Z,4.75
2023-03-05T16:37:23.612Z,4.77
2023-03-05T16:39:50.484Z,4.77
2023-03-05T16:42:17.591Z,4.69
2023-03-05T16:44:44.924Z,4.67
2023-03-05T16:47:12.413Z,4.73
2023-03-05T16:49:39.720Z,4.70
2023-03-05T16:52:18.425Z,4.59
2023-03-05T16:54:45.788Z,4.57
2023-03-05T16:57:12.665Z,4.53
2023-03-05T16:59:39.488Z,4.50
2023-03-05T17:02:06.537Z,4.49
2023-03-05T17:04:33.361Z,4.48
2023-03-05T17:07:00.116Z,4.40
2023-03-05T17:09:26.943Z,4.35
2023-03-05T17:11:54.817Z,4.31
2023-03-05T17:14:21.933Z,4.37
2023-03-05T17:16:48.776Z,4.34
2023-03-05T17:19:15.709Z,4.39
2023-03-05T17:21:43.161Z,4.28
2023-03-05T17:24:10.685Z,4.34
2023-03-05T17:26:38.363Z,4.28
2023-03-05T17:29:05.857Z,4.31
2023-03-05T17:31:33.037Z,4.30
2023-03-05T17:33:59.849Z,4.23
2023-03-05T17:36:26.749Z,4.18
2023-03-05T17:38:53.715Z,4.22
2023-03-05T17:41:23.263Z,4.15
2023-03-05T17:43:50.384Z,4.14
2023-03-05T17:46:19.328Z,4.18
2023-03-05T17:48:46.303Z,4.17
2023-03-05T17:51:17.679Z,4.14
2023-03-05T17:53:44.936Z,4.16
2023-03-05T17:56:13.984Z,4.13
2023-03-05T17:58:40.973Z,4.12
2023-03-05T18:01:08.320Z,4.12
2023-03-05T18:03:37.324Z,4.15
2023-03-05T18:06:05.069Z,4.05
2023-03-05T18:08:32.136Z,4.11
2023-03-05T18:10:59.319Z,4.03
2023-03-05T18:13:26.283Z,4.07
2023-03-05T18:15:53.085Z,4.09
2023-03-05T18:18:19.858Z,3.98
2023-03-05T18:20:48.717Z,4.03
2023-03-05T18:23:15.834Z,3.98
2023-03-05T18:25:44.331Z,3.99
2023-03-05T18:28:13.263Z,4.04
2023-03-05T18:30:41.906Z,4.02
2023-03-05T18:33:17.404Z,3.96
2023-03-05T18:35:44.212Z,4.03
2023-03-05T18:38:11.053Z,3.98
2023-03-05T18:40:39.837Z,3.99
2023-03-05T18:43:06.918Z,3.92
2023-03-05T18:45:34.436Z,3.91
2023-03-05T18:48:02.521Z,3.92
2023-03-05T18:50:32.516Z,3.85
2023-03-05T18:52:59.376Z,3.89
2023-03-05T18:55:29.335Z,3.83
2023-03-05T18:57:56.598Z,3.88
2023-03-05T19:00:26.561Z,3.90
2023-03-05T19:02:54.054Z,3.89
2023-03-05T19:05:21.208Z,3.87
2023-03-05T19:07:48.709Z,3.89
2023-03-05T19:10:16.544Z,3.86
2023-03-05T19:12:49.219Z,3.84
2023-03-05T19:15:16.570Z,3.82
2023-03-05T19:17:43.334Z,3.78
2023-03-05T19:20:14.371Z,3.76
2023-03-05T19:22:41.111Z,3.82
2023-03-05T19:25:08.908Z,3.80
2023-03-05T19:27:35.685Z,3.80
2023-03-05T19:30:02.964Z,3.82
2023-03-05T19:32:29.906Z,3.78
2023-03-05T19:34:58.135Z,3.72
2023-03-05T19:37:25.194Z,3.74
2023-03-05T19:39:51.988Z,3.72
2023-03-05T19:42:19.100Z,3.69
2023-03-05T19:44:46.074Z,3.63
2023-03-05T19:47:12.877Z,3.73
2023-03-05T19:49:39.839Z,3.60
2023-03-05T19:52:07.020Z,3.62
2023-03-05T19:54:34.245Z,3.60
2023-03-05T19:57:01.011Z,3.59
2023-03-05T19:59:28.597Z,3.66
2023-03-05T20:01:57.644Z,3.63
2023-03-05T20:04:25.154Z,3.61
2023-03-05T20:06:52.582Z,3.58
2023-03-05T20:09:19.898Z,3.62
2023-03-05T20:11:50.535Z,3.57
2023-03-05T20:14:17.296Z,3.61
2023-03-05T20:16:44.284Z,3.50
2023-03-05T20:19:16.603Z,3.47
2023-03-05T20:21:44.680Z,3.50
2023-03-05T20:24:14.810Z,3.61
2023-03-05T20:26:43.795Z,3.57
2023-03-05T20:29:11.388Z,3.53
2023-03-05T20:31:38.614Z,3.58
2023-03-05T20:34:07.730Z,3.49
2023-03-05T20:36:34.878Z,3.55
2023-03-05T20:39:05.341Z,3.45
2023-03-05T20:41:34.433Z,3.53
2023-03-05T20:44:01.186Z,3.46
2023-03-05T20:46:31.191Z,3.48
2023-03-05T20:49:00.302Z,3.49
2023-03-05T20:51:33.993Z,3.40
2023-03-05T20:54:04.392Z,3.39
2023-03-05T20:56:32.915Z,3.36
2023-03-05T20:59:01.245Z,3.31
2023-03-05T21:01:30.298Z,3.38
2023-03-05T21:03:57.684Z,3.43
2023-03-05T21:06:25.870Z,3.35
2023-03-05T21:08:52.912Z,3.40
2023-03-05T21:11:20.377Z,3.34
2023-03-05T21:13:47.612Z,3.28
2023-03-05T21:16:17.548Z,3.38
2023-03-05T21:18:44.737Z,3.33
2023-03-05T21:21:11.836Z,3.32
2023-03-05T21:23:38.620Z,3.27
2023-03-05T21:26:05.761Z,3.36
2023-03-05T21:28:33.174Z,3.31
2023-03-05T21:31:07.441Z,3.35
2023-03-05T21:33:34.285Z,3.28
2023-03-05T21:36:01.076Z,3.34
2023-03-05T21:38:30.545Z,3.28
2023-03-05T21:40:58.640Z,3.35
2023-03-05T21:43:26.930Z,3.33
2023-03-05T21:45:54.966Z,3.34
2023-03-05T21:48:22.123Z,3.34
2023-03-05T21:50:49.250Z,3.34
2023-03-05T21:53:19.469Z,3.26
2023-03-05T21:56:07.686Z,3.26
2023-03-05T21:58:35.531Z,3.23
2023-03-05T22:01:02.960Z,3.26
2023-03-05T22:03:30.252Z,3.29
2023-03-05T22:05:57.377Z,3.30
2023-03-05T22:08:24.626Z,3.32
2023-03-05T22:10:51.540Z,3.22
2023-03-05T22:13:20.334Z,3.24
2023-03-05T22:15:50.995Z,3.30
2023-03-05T22:18:23.803Z,3.25
2023-03-05T22:20:50.884Z,3.29
2023-03-05T22:23:18.689Z,3.31
2023-03-05T22:25:45.446Z,3.27
2023-03-05T22:28:12.935Z,3.27
2023-03-05T22:30:46.254Z,3.21
2023-03-05T22:33:13.299Z,3.25
2023-03-05T22:35:41.211Z,3.24
2023-03-05T22:38:09.327Z,3.23
2023-03-05T22:40:37.736Z,3.26
2023-03-05T22:43:04.993Z,3.22
2023-03-05T22:45:31.761Z,3.17
2023-03-05T22:47:58.530Z,3.24
2023-03-05T22:50:25.233Z,3.20
2023-03-05T22:52:52.622Z,3.24
2023-03-05T22:55:19.496Z,3.20
2023-03-05T22:57:46.352Z,3.22
2023-03-05T23:00:23.816Z,3.15
2023-03-05T23:02:51.541Z,3.22
2023-03-05T23:05:19.066Z,3.22
2023-03-05T23:07:46.097Z,3.21
2023-03-05T23:10:17.193Z,3.14
2023-03-05T23:12:46.357Z,3.19
2023-03-05T23:15:15.572Z,3.07
2023-03-05T23:17:43.078Z,3.14
2023-03-05T23:20:11.725Z,3.16
2023-03-05T23:22:40.579Z,3.16
2023-03-05T23:25:07.730Z,3.14
2023-03-05T23:27:34.393Z,3.12
2023-03-05T23:30:19.529Z,3.14
2023-03-05T23:32:49.402Z,3.14
2023-03-05T23:35:22.386Z,3.14
2023-03-05T23:37:49.544Z,3.14
2023-03-05T23:40:19.714Z,3.11
2023-03-05T23:42:46.601Z,3.10
2023-03-05T23:45:16.150Z,3.09
2023-03-05T23:47:43.457Z,3.05
2023-03-05T23:50:16.997Z,3.14
2023-03-05T23:52:44.952Z,3.10
2023-03-05T23:55:20.412Z,3.01
2023-03-05T23:57:47.854Z,3.09
